sensor_id;sensor_type;location;lat;lon;timestamp;temperature;humidity
11639;DHT22;5875;35.940;126.892;2024-02-14T00:01:00;12.40;99.90
11639;DHT22;5875;35.940;126.892;2024-02-14T00:03:30;12.50;99.90
11639;DHT22;5875;35.940;126.892;2024-02-14T00:05:57;12.60;99.90
11639;DHT22;5875;35.940;126.892;2024-02-14T00:08:24;12.70;99.90
11639;DHT22;5875;35.940;126.892;2024-02-14T00:10:54;12.80;99.90
11639;DHT22;5875;35.940;126.892;2024-02-14T00:13:22;13.00;99.90
11639;DHT22;5875;35.940;126.892;2024-02-14T00:15:49;13.10;99.90
11639;DHT22;5875;35.940;126.892;2024-02-14T00:18:17;13.20;99.90
11639;DHT22;5875;35.940;126.892;2024-02-14T00:20:49;13.30;99.90
11639;DHT22;5875;35.940;126.892;2024-02-14T00:23:16;13.20;99.90
11639;DHT22;5875;35.940;126.892;2024-02-14T00:25:43;13.30;99.90
11639;DHT22;5875;35.940;126.892;2024-02-14T00:28:10;13.30;99.90
11639;DHT22;5875;35.940;126.892;2024-02-14T00:30:38;13.40;99.90
11639;DHT22;5875;35.940;126.892;2024-02-14T00:33:05;13.40;99.90
11639;DHT22;5875;35.940;126.892;2024-02-14T00:35:33;13.40;99.90
11639;DHT22;5875;35.940;126.892;2024-02-14T00:38:03;13.50;99.90
11639;DHT22;5875;35.940;126.892;2024-02-14T00:40:30;13.50;99.90
11639;DHT22;5875;35.940;126.892;2024-02-14T00:43:01;13.60;99.90
11639;DHT22;5875;35.940;126.892;2024-02-14T00:45:31;13.80;99.90
11639;DHT22;5875;35.940;126.892;2024-02-14T00:47:58;13.70;99.90
11639;DHT22;5875;35.940;126.892;2024-02-14T00:50:25;13.70;99.90
11639;DHT22;5875;35.940;126.892;2024-02-14T00:52:53;13.70;99.90
11639;DHT22;5875;35.940;126.892;2024-02-14T00:55:20;13.70;99.90
11639;DHT22;5875;35.940;126.892;2024-02-14T00:57:47;13.70;99.90
11639;DHT22;5875;35.940;126.892;2024-02-14T01:00:17;13.70;99.90
11639;DHT22;5875;35.940;126.892;2024-02-14T01:02:48;13.80;99.90
11639;DHT22;5875;35.940;126.892;2024-02-14T01:05:18;13.80;99.90
11639;DHT22;5875;35.940;126.892;2024-02-14T01:07:45;13.80;99.90
11639;DHT22;5875;35.940;126.892;2024-02-14T01:10:15;14.00;99.90
11639;DHT22;5875;35.940;126.892;2024-02-14T01:12:42;14.20;99.90
11639;DHT22;5875;35.940;126.892;2024-02-14T01:15:10;14.30;99.90
11639;DHT22;5875;35.940;126.892;2024-02-14T01:17:37;14.40;99.90
11639;DHT22;5875;35.940;126.892;2024-02-14T01:20:08;14.40;99.90
11639;DHT22;5875;35.940;126.892;2024-02-14T01:22:38;14.40;99.90
11639;DHT22;5875;35.940;126.892;2024-02-14T01:25:05;14.50;99.90
11639;DHT22;5875;35.940;126.892;2024-02-14T01:27:33;14.60;99.90
11639;DHT22;5875;35.940;126.892;2024-02-14T01:30:00;14.50;99.90
11639;DHT22;5875;35.940;126.892;2024-02-14T01:32:27;14.50;99.90
11639;DHT22;5875;35.940;126.892;2024-02-14T01:34:56;14.50;99.90
11639;DHT22;5875;35.940;126.892;2024-02-14T01:37:23;14.60;99.90
11639;DHT22;5875;35.940;126.892;2024-02-14T01:39:50;14.70;99.90
11639;DHT22;5875;35.940;126.892;2024-02-14T01:42:18;15.20;99.90
11639;DHT22;5875;35.940;126.892;2024-02-14T01:44:45;15.50;99.90
11639;DHT22;5875;35.940;126.892;2024-02-14T01:47:12;15.40;99.90
11639;DHT22;5875;35.940;126.892;2024-02-14T01:49:40;15.40;99.90
11639;DHT22;5875;35.940;126.892;2024-02-14T01:52:10;15.40;99.90
11639;DHT22;5875;35.940;126.892;2024-02-14T01:54:38;15.70;99.90
11639;DHT22;5875;35.940;126.892;2024-02-14T01:57:05;16.10;99.90
11639;DHT22;5875;35.940;126.892;2024-02-14T01:59:34;16.60;99.90
11639;DHT22;5875;35.940;126.892;2024-02-14T02:02:07;16.90;99.90
11639;DHT22;5875;35.940;126.892;2024-02-14T02:04:35;16.80;99.90
11639;DHT22;5875;35.940;126.892;2024-02-14T02:07:02;16.90;99.90
11639;DHT22;5875;35.940;126.892;2024-02-14T02:09:30;17.10;99.90
11639;DHT22;5875;35.940;126.892;2024-02-14T02:11:57;17.20;99.90
11639;DHT22;5875;35.940;126.892;2024-02-14T02:14:26;17.30;99.90
11639;DHT22;5875;35.940;126.892;2024-02-14T02:16:54;17.30;99.90
11639;DHT22;5875;35.940;126.892;2024-02-14T02:19:27;17.50;99.90
11639;DHT22;5875;35.940;126.892;2024-02-14T02:21:55;18.30;99.90
11639;DHT22;5875;35.940;126.892;2024-02-14T02:24:22;18.30;99.90
11639;DHT22;5875;35.940;126.892;2024-02-14T02:26:49;18.30;99.90
11639;DHT22;5875;35.940;126.892;2024-02-14T02:29:16;18.10;99.90
11639;DHT22;5875;35.940;126.892;2024-02-14T02:31:47;17.90;99.90
11639;DHT22;5875;35.940;126.892;2024-02-14T02:34:14;17.80;99.90
11639;DHT22;5875;35.940;126.892;2024-02-14T02:36:43;17.70;99.90
11639;DHT22;5875;35.940;126.892;2024-02-14T02:39:12;17.70;99.90
11639;DHT22;5875;35.940;126.892;2024-02-14T02:41:40;17.70;99.90
11639;DHT22;5875;35.940;126.892;2024-02-14T02:44:07;17.60;99.90
11639;DHT22;5875;35.940;126.892;2024-02-14T02:46:35;17.50;99.90
11639;DHT22;5875;35.940;126.892;2024-02-14T02:49:02;17.50;99.90
11639;DHT22;5875;35.940;126.892;2024-02-14T02:51:29;17.40;99.90
11639;DHT22;5875;35.940;126.892;2024-02-14T02:53:56;17.40;99.90
11639;DHT22;5875;35.940;126.892;2024-02-14T02:56:24;17.40;99.90
11639;DHT22;5875;35.940;126.892;2024-02-14T02:58:55;17.30;99.90
11639;DHT22;5875;35.940;126.892;2024-02-14T03:01:22;17.30;99.90
11639;DHT22;5875;35.940;126.892;2024-02-14T03:03:51;17.20;99.90
11639;DHT22;5875;35.940;126.892;2024-02-14T03:06:18;17.20;99.90
11639;DHT22;5875;35.940;126.892;2024-02-14T03:08:46;17.20;99.90
11639;DHT22;5875;35.940;126.892;2024-02-14T03:11:16;17.20;99.90
11639;DHT22;5875;35.940;126.892;2024-02-14T03:13:43;17.20;99.90
11639;DHT22;5875;35.940;126.892;2024-02-14T03:16:10;17.30;99.90
11639;DHT22;5875;35.940;126.892;2024-02-14T03:18:38;17.40;99.90
11639;DHT22;5875;35.940;126.892;2024-02-14T03:21:05;17.60;99.90
11639;DHT22;5875;35.940;126.892;2024-02-14T03:23:32;17.60;99.90
11639;DHT22;5875;35.940;126.892;2024-02-14T03:26:03;17.60;99.90
11639;DHT22;5875;35.940;126.892;2024-02-14T03:28:34;17.70;99.90
11639;DHT22;5875;35.940;126.892;2024-02-14T03:31:01;17.60;99.90
11639;DHT22;5875;35.940;126.892;2024-02-14T03:33:28;17.60;99.90
11639;DHT22;5875;35.940;126.892;2024-02-14T03:35:58;17.60;99.90
11639;DHT22;5875;35.940;126.892;2024-02-14T03:38:31;18.00;99.90
11639;DHT22;5875;35.940;126.892;2024-02-14T03:40:59;18.00;99.90
11639;DHT22;5875;35.940;126.892;2024-02-14T03:43:26;17.80;99.90
11639;DHT22;5875;35.940;126.892;2024-02-14T03:45:54;17.70;99.90
11639;DHT22;5875;35.940;126.892;2024-02-14T03:48:22;17.60;99.90
11639;DHT22;5875;35.940;126.892;2024-02-14T03:50:49;17.50;99.90
11639;DHT22;5875;35.940;126.892;2024-02-14T03:53:16;17.50;99.90
11639;DHT22;5875;35.940;126.892;2024-02-14T03:55:44;17.50;99.90
11639;DHT22;5875;35.940;126.892;2024-02-14T03:58:11;17.50;99.90
11639;DHT22;5875;35.940;126.892;2024-02-14T04:00:40;17.50;99.90
11639;DHT22;5875;35.940;126.892;2024-02-14T04:03:07;17.50;99.90
11639;DHT22;5875;35.940;126.892;2024-02-14T04:05:34;17.50;99.90
11639;DHT22;5875;35.940;126.892;2024-02-14T04:08:02;17.50;99.90
11639;DHT22;5875;35.940;126.892;2024-02-14T04:10:30;17.60;99.90
11639;DHT22;5875;35.940;126.892;2024-02-14T04:12:57;17.70;99.90
11639;DHT22;5875;35.940;126.892;2024-02-14T04:15:24;17.70;99.90
11639;DHT22;5875;35.940;126.892;2024-02-14T04:17:51;17.60;99.90
11639;DHT22;5875;35.940;126.892;2024-02-14T04:20:19;17.50;99.90
11639;DHT22;5875;35.940;126.892;2024-02-14T04:22:46;17.50;99.90
11639;DHT22;5875;35.940;126.892;2024-02-14T04:25:14;17.50;99.90
11639;DHT22;5875;35.940;126.892;2024-02-14T04:27:41;17.50;99.90
11639;DHT22;5875;35.940;126.892;2024-02-14T04:30:09;17.40;99.90
11639;DHT22;5875;35.940;126.892;2024-02-14T04:32:36;17.40;99.90
11639;DHT22;5875;35.940;126.892;2024-02-14T04:35:03;17.40;99.90
11639;DHT22;5875;35.940;126.892;2024-02-14T04:37:31;17.40;99.90
11639;DHT22;5875;35.940;126.892;2024-02-14T04:39:59;17.30;99.90
11639;DHT22;5875;35.940;126.892;2024-02-14T04:42:26;17.30;99.90
11639;DHT22;5875;35.940;126.892;2024-02-14T04:44:53;17.30;99.90
11639;DHT22;5875;35.940;126.892;2024-02-14T04:47:21;17.30;99.90
11639;DHT22;5875;35.940;126.892;2024-02-14T04:49:48;17.30;99.90
11639;DHT22;5875;35.940;126.892;2024-02-14T04:52:15;17.30;99.90
11639;DHT22;5875;35.940;126.892;2024-02-14T04:54:42;17.30;99.90
11639;DHT22;5875;35.940;126.892;2024-02-14T04:57:10;17.30;99.90
11639;DHT22;5875;35.940;126.892;2024-02-14T04:59:37;17.30;99.90
11639;DHT22;5875;35.940;126.892;2024-02-14T05:02:07;17.40;99.90
11639;DHT22;5875;35.940;126.892;2024-02-14T05:04:34;17.40;99.90
11639;DHT22;5875;35.940;126.892;2024-02-14T05:07:04;17.50;99.90
11639;DHT22;5875;35.940;126.892;2024-02-14T05:09:32;17.60;99.90
11639;DHT22;5875;35.940;126.892;2024-02-14T05:11:59;17.70;99.90
11639;DHT22;5875;35.940;126.892;2024-02-14T05:14:26;17.80;99.90
11639;DHT22;5875;35.940;126.892;2024-02-14T05:16:57;18.00;99.90
11639;DHT22;5875;35.940;126.892;2024-02-14T05:19:27;18.30;99.90
11639;DHT22;5875;35.940;126.892;2024-02-14T05:21:56;18.40;99.90
11639;DHT22;5875;35.940;126.892;2024-02-14T05:24:23;18.30;99.90
11639;DHT22;5875;35.940;126.892;2024-02-14T05:26:54;18.30;99.90
11639;DHT22;5875;35.940;126.892;2024-02-14T05:29:22;18.30;99.90
11639;DHT22;5875;35.940;126.892;2024-02-14T05:31:49;18.60;99.90
11639;DHT22;5875;35.940;126.892;2024-02-14T05:34:18;18.70;99.90
11639;DHT22;5875;35.940;126.892;2024-02-14T05:36:45;18.80;99.90
11639;DHT22;5875;35.940;126.892;2024-02-14T05:39:13;19.10;99.90
11639;DHT22;5875;35.940;126.892;2024-02-14T05:41:43;19.40;99.90
11639;DHT22;5875;35.940;126.892;2024-02-14T05:44:11;19.40;99.90
11639;DHT22;5875;35.940;126.892;2024-02-14T05:46:38;19.30;99.90
11639;DHT22;5875;35.940;126.892;2024-02-14T05:49:05;19.40;99.90
11639;DHT22;5875;35.940;126.892;2024-02-14T05:51:32;19.40;99.90
11639;DHT22;5875;35.940;126.892;2024-02-14T05:54:00;19.60;99.90
11639;DHT22;5875;35.940;126.892;2024-02-14T05:56:27;19.60;99.90
11639;DHT22;5875;35.940;126.892;2024-02-14T05:58:54;19.70;99.90
11639;DHT22;5875;35.940;126.892;2024-02-14T06:01:21;19.80;99.90
11639;DHT22;5875;35.940;126.892;2024-02-14T06:03:49;19.80;99.90
11639;DHT22;5875;35.940;126.892;2024-02-14T06:06:16;20.00;99.90
11639;DHT22;5875;35.940;126.892;2024-02-14T06:08:43;19.80;99.90
11639;DHT22;5875;35.940;126.892;2024-02-14T06:11:11;19.90;99.90
11639;DHT22;5875;35.940;126.892;2024-02-14T06:13:40;20.00;99.90
11639;DHT22;5875;35.940;126.892;2024-02-14T06:16:08;20.10;99.90
11639;DHT22;5875;35.940;126.892;2024-02-14T06:18:35;20.10;99.90
11639;DHT22;5875;35.940;126.892;2024-02-14T06:21:02;20.20;99.90
11639;DHT22;5875;35.940;126.892;2024-02-14T06:23:29;20.20;99.90
11639;DHT22;5875;35.940;126.892;2024-02-14T06:25:58;20.30;99.90
11639;DHT22;5875;35.940;126.892;2024-02-14T06:28:25;20.40;99.90
11639;DHT22;5875;35.940;126.892;2024-02-14T06:30:52;20.30;99.90
11639;DHT22;5875;35.940;126.892;2024-02-14T06:33:20;20.20;99.90
11639;DHT22;5875;35.940;126.892;2024-02-14T06:35:50;20.50;99.90
11639;DHT22;5875;35.940;126.892;2024-02-14T06:38:18;20.40;99.90
11639;DHT22;5875;35.940;126.892;2024-02-14T06:40:45;20.30;99.90
11639;DHT22;5875;35.940;126.892;2024-02-14T06:43:12;20.50;99.90
11639;DHT22;5875;35.940;126.892;2024-02-14T06:45:40;20.30;99.90
11639;DHT22;5875;35.940;126.892;2024-02-14T06:48:08;20.10;99.90
11639;DHT22;5875;35.940;126.892;2024-02-14T06:50:35;20.00;99.90
11639;DHT22;5875;35.940;126.892;2024-02-14T06:53:03;19.80;99.90
11639;DHT22;5875;35.940;126.892;2024-02-14T06:55:30;19.70;99.90
11639;DHT22;5875;35.940;126.892;2024-02-14T06:57:59;19.70;99.90
11639;DHT22;5875;35.940;126.892;2024-02-14T07:00:27;19.70;99.90
11639;DHT22;5875;35.940;126.892;2024-02-14T07:02:57;19.80;99.90
11639;DHT22;5875;35.940;126.892;2024-02-14T07:05:27;19.90;99.90
11639;DHT22;5875;35.940;126.892;2024-02-14T07:07:56;19.80;99.90
11639;DHT22;5875;35.940;126.892;2024-02-14T07:10:26;19.80;99.90
11639;DHT22;5875;35.940;126.892;2024-02-14T07:12:56;19.70;99.90
11639;DHT22;5875;35.940;126.892;2024-02-14T07:15:23;19.70;99.90
11639;DHT22;5875;35.940;126.892;2024-02-14T07:17:58;19.60;99.90
11639;DHT22;5875;35.940;126.892;2024-02-14T07:20:25;19.60;99.90
11639;DHT22;5875;35.940;126.892;2024-02-14T07:22:56;19.50;99.90
11639;DHT22;5875;35.940;126.892;2024-02-14T07:25:23;19.50;99.90
11639;DHT22;5875;35.940;126.892;2024-02-14T07:27:51;19.40;99.90
11639;DHT22;5875;35.940;126.892;2024-02-14T07:30:21;19.40;99.90
11639;DHT22;5875;35.940;126.892;2024-02-14T07:32:48;19.40;99.90
11639;DHT22;5875;35.940;126.892;2024-02-14T07:35:17;19.50;99.90
11639;DHT22;5875;35.940;126.892;2024-02-14T07:37:44;19.60;99.90
11639;DHT22;5875;35.940;126.892;2024-02-14T07:40:15;19.60;99.90
11639;DHT22;5875;35.940;126.892;2024-02-14T07:42:42;19.60;99.90
11639;DHT22;5875;35.940;126.892;2024-02-14T07:45:09;19.60;99.90
11639;DHT22;5875;35.940;126.892;2024-02-14T07:47:39;19.70;99.90
11639;DHT22;5875;35.940;126.892;2024-02-14T07:50:07;19.60;99.90
11639;DHT22;5875;35.940;126.892;2024-02-14T07:52:35;19.50;99.90
11639;DHT22;5875;35.940;126.892;2024-02-14T07:55:05;19.40;99.90
11639;DHT22;5875;35.940;126.892;2024-02-14T07:57:33;19.40;99.90
11639;DHT22;5875;35.940;126.892;2024-02-14T08:00:00;19.30;99.90
11639;DHT22;5875;35.940;126.892;2024-02-14T08:02:27;19.10;99.90
11639;DHT22;5875;35.940;126.892;2024-02-14T08:04:55;19.00;99.90
11639;DHT22;5875;35.940;126.892;2024-02-14T08:07:23;18.90;99.90
11639;DHT22;5875;35.940;126.892;2024-02-14T08:09:50;18.80;99.90
11639;DHT22;5875;35.940;126.892;2024-02-14T08:12:17;18.70;99.90
11639;DHT22;5875;35.940;126.892;2024-02-14T08:14:44;18.70;99.90
11639;DHT22;5875;35.940;126.892;2024-02-14T08:17:13;18.60;99.90
11639;DHT22;5875;35.940;126.892;2024-02-14T08:19:41;18.50;99.90
11639;DHT22;5875;35.940;126.892;2024-02-14T08:22:08;18.30;99.90
11639;DHT22;5875;35.940;126.892;2024-02-14T08:24:35;18.30;99.90
11639;DHT22;5875;35.940;126.892;2024-02-14T08:27:03;18.20;99.90
11639;DHT22;5875;35.940;126.892;2024-02-14T08:29:33;18.10;99.90
11639;DHT22;5875;35.940;126.892;2024-02-14T08:32:03;18.00;99.90
11639;DHT22;5875;35.940;126.892;2024-02-14T08:34:31;17.90;99.90
11639;DHT22;5875;35.940;126.892;2024-02-14T08:36:58;17.80;99.90
11639;DHT22;5875;35.940;126.892;2024-02-14T08:39:25;17.80;99.90
11639;DHT22;5875;35.940;126.892;2024-02-14T08:41:53;17.60;99.90
11639;DHT22;5875;35.940;126.892;2024-02-14T08:44:20;17.50;99.90
11639;DHT22;5875;35.940;126.892;2024-02-14T08:46:47;17.30;99.90
11639;DHT22;5875;35.940;126.892;2024-02-14T08:49:17;17.40;99.90
11639;DHT22;5875;35.940;126.892;2024-02-14T08:51:44;17.30;99.90
11639;DHT22;5875;35.940;126.892;2024-02-14T08:54:12;17.20;99.90
11639;DHT22;5875;35.940;126.892;2024-02-14T08:56:40;17.10;99.90
11639;DHT22;5875;35.940;126.892;2024-02-14T08:59:10;16.90;99.90
11639;DHT22;5875;35.940;126.892;2024-02-14T09:01:38;16.90;99.90
11639;DHT22;5875;35.940;126.892;2024-02-14T09:04:05;16.80;99.90
11639;DHT22;5875;35.940;126.892;2024-02-14T09:06:32;16.70;99.90
11639;DHT22;5875;35.940;126.892;2024-02-14T09:09:00;16.60;99.90
11639;DHT22;5875;35.940;126.892;2024-02-14T09:11:27;16.50;99.90
11639;DHT22;5875;35.940;126.892;2024-02-14T09:13:54;16.50;99.90
11639;DHT22;5875;35.940;126.892;2024-02-14T09:16:25;16.40;99.90
11639;DHT22;5875;35.940;126.892;2024-02-14T09:18:53;16.30;99.90
11639;DHT22;5875;35.940;126.892;2024-02-14T09:21:20;16.20;99.90
11639;DHT22;5875;35.940;126.892;2024-02-14T09:23:50;16.10;99.90
11639;DHT22;5875;35.940;126.892;2024-02-14T09:26:18;16.10;99.90
11639;DHT22;5875;35.940;126.892;2024-02-14T09:28:45;16.10;99.90
11639;DHT22;5875;35.940;126.892;2024-02-14T09:31:12;16.00;99.90
11639;DHT22;5875;35.940;126.892;2024-02-14T09:33:44;15.90;99.90
11639;DHT22;5875;35.940;126.892;2024-02-14T09:36:12;15.80;99.90
11639;DHT22;5875;35.940;126.892;2024-02-14T09:38:39;15.70;99.90
11639;DHT22;5875;35.940;126.892;2024-02-14T09:41:22;15.60;99.90
11639;DHT22;5875;35.940;126.892;2024-02-14T09:43:50;15.60;99.90
11639;DHT22;5875;35.940;126.892;2024-02-14T09:46:17;15.60;99.90
11639;DHT22;5875;35.940;126.892;2024-02-14T09:48:45;15.50;99.90
11639;DHT22;5875;35.940;126.892;2024-02-14T09:51:13;15.40;99.90
11639;DHT22;5875;35.940;126.892;2024-02-14T09:53:40;15.40;99.90
11639;DHT22;5875;35.940;126.892;2024-02-14T09:56:12;15.30;99.90
11639;DHT22;5875;35.940;126.892;2024-02-14T09:58:41;15.30;99.90
11639;DHT22;5875;35.940;126.892;2024-02-14T10:01:08;15.20;99.90
11639;DHT22;5875;35.940;126.892;2024-02-14T10:03:35;15.20;99.90
11639;DHT22;5875;35.940;126.892;2024-02-14T10:06:03;15.10;99.90
11639;DHT22;5875;35.940;126.892;2024-02-14T10:08:30;15.10;99.90
11639;DHT22;5875;35.940;126.892;2024-02-14T10:10:58;15.00;99.90
11639;DHT22;5875;35.940;126.892;2024-02-14T10:13:29;15.00;99.90
11639;DHT22;5875;35.940;126.892;2024-02-14T10:15:58;14.90;99.90
11639;DHT22;5875;35.940;126.892;2024-02-14T10:18:25;14.90;99.90
11639;DHT22;5875;35.940;126.892;2024-02-14T10:20:56;14.90;99.90
11639;DHT22;5875;35.940;126.892;2024-02-14T10:23:24;14.90;99.90
11639;DHT22;5875;35.940;126.892;2024-02-14T10:25:53;14.80;99.90
11639;DHT22;5875;35.940;126.892;2024-02-14T10:28:22;14.80;99.90
11639;DHT22;5875;35.940;126.892;2024-02-14T10:30:50;14.70;99.90
11639;DHT22;5875;35.940;126.892;2024-02-14T10:33:17;14.80;99.90
11639;DHT22;5875;35.940;126.892;2024-02-14T10:35:48;14.70;99.90
11639;DHT22;5875;35.940;126.892;2024-02-14T10:38:17;14.70;99.90
11639;DHT22;5875;35.940;126.892;2024-02-14T10:40:48;14.70;99.90
11639;DHT22;5875;35.940;126.892;2024-02-14T10:43:16;14.70;99.90
11639;DHT22;5875;35.940;126.892;2024-02-14T10:45:45;14.70;99.90
11639;DHT22;5875;35.940;126.892;2024-02-14T10:48:13;14.70;99.90
11639;DHT22;5875;35.940;126.892;2024-02-14T10:50:42;14.60;99.90
11639;DHT22;5875;35.940;126.892;2024-02-14T10:53:14;14.60;99.90
11639;DHT22;5875;35.940;126.892;2024-02-14T10:55:47;14.60;99.90
11639;DHT22;5875;35.940;126.892;2024-02-14T10:58:16;14.60;99.90
11639;DHT22;5875;35.940;126.892;2024-02-14T11:00:47;14.40;99.90
11639;DHT22;5875;35.940;126.892;2024-02-14T11:03:15;14.20;99.90
11639;DHT22;5875;35.940;126.892;2024-02-14T11:05:46;14.00;99.90
11639;DHT22;5875;35.940;126.892;2024-02-14T11:08:23;13.80;99.90
11639;DHT22;5875;35.940;126.892;2024-02-14T11:10:59;13.70;99.90
11639;DHT22;5875;35.940;126.892;2024-02-14T11:13:30;13.60;99.90
11639;DHT22;5875;35.940;126.892;2024-02-14T11:16:01;13.50;99.90
11639;DHT22;5875;35.940;126.892;2024-02-14T11:18:29;13.50;99.90
11639;DHT22;5875;35.940;126.892;2024-02-14T11:21:15;13.40;99.90
11639;DHT22;5875;35.940;126.892;2024-02-14T11:23:53;13.40;99.90
11639;DHT22;5875;35.940;126.892;2024-02-14T11:26:25;13.50;99.90
11639;DHT22;5875;35.940;126.892;2024-02-14T11:29:00;13.40;99.90
11639;DHT22;5875;35.940;126.892;2024-02-14T11:31:35;13.30;99.90
11639;DHT22;5875;35.940;126.892;2024-02-14T11:34:04;13.20;99.90
11639;DHT22;5875;35.940;126.892;2024-02-14T11:36:32;13.20;99.90
11639;DHT22;5875;35.940;126.892;2024-02-14T11:39:03;13.20;99.90
11639;DHT22;5875;35.940;126.892;2024-02-14T11:41:34;13.20;99.90
11639;DHT22;5875;35.940;126.892;2024-02-14T11:44:05;13.20;99.90
11639;DHT22;5875;35.940;126.892;2024-02-14T11:46:36;13.30;99.90
11639;DHT22;5875;35.940;126.892;2024-02-14T11:49:05;13.30;99.90
11639;DHT22;5875;35.940;126.892;2024-02-14T11:51:34;13.30;99.90
11639;DHT22;5875;35.940;126.892;2024-02-14T11:54:05;13.40;99.90
11639;DHT22;5875;35.940;126.892;2024-02-14T11:56:37;13.40;99.90
11639;DHT22;5875;35.940;126.892;2024-02-14T11:59:06;13.50;99.90
11639;DHT22;5875;35.940;126.892;2024-02-14T12:01:38;13.40;99.90
11639;DHT22;5875;35.940;126.892;2024-02-14T12:04:09;13.50;99.90
11639;DHT22;5875;35.940;126.892;2024-02-14T12:06:38;13.50;99.90
11639;DHT22;5875;35.940;126.892;2024-02-14T12:09:08;13.40;99.90
11639;DHT22;5875;35.940;126.892;2024-02-14T12:11:36;13.40;99.90
11639;DHT22;5875;35.940;126.892;2024-02-14T12:14:06;13.30;99.90
11639;DHT22;5875;35.940;126.892;2024-02-14T12:16:35;13.30;99.90
11639;DHT22;5875;35.940;126.892;2024-02-14T12:19:08;13.20;99.90
11639;DHT22;5875;35.940;126.892;2024-02-14T12:21:40;13.30;99.90
11639;DHT22;5875;35.940;126.892;2024-02-14T12:24:09;13.30;99.90
11639;DHT22;5875;35.940;126.892;2024-02-14T12:26:38;13.40;99.90
11639;DHT22;5875;35.940;126.892;2024-02-14T12:29:06;13.50;99.90
11639;DHT22;5875;35.940;126.892;2024-02-14T12:31:34;13.50;99.90
11639;DHT22;5875;35.940;126.892;2024-02-14T12:34:04;13.50;99.90
11639;DHT22;5875;35.940;126.892;2024-02-14T12:36:34;13.40;99.90
11639;DHT22;5875;35.940;126.892;2024-02-14T12:39:02;13.40;99.90
11639;DHT22;5875;35.940;126.892;2024-02-14T12:41:31;13.30;99.90
11639;DHT22;5875;35.940;126.892;2024-02-14T12:44:01;13.30;99.90
11639;DHT22;5875;35.940;126.892;2024-02-14T12:46:28;13.30;99.90
11639;DHT22;5875;35.940;126.892;2024-02-14T12:48:56;13.20;99.90
11639;DHT22;5875;35.940;126.892;2024-02-14T12:51:23;13.10;99.90
11639;DHT22;5875;35.940;126.892;2024-02-14T12:53:54;13.00;99.90
11639;DHT22;5875;35.940;126.892;2024-02-14T12:56:22;12.90;99.90
11639;DHT22;5875;35.940;126.892;2024-02-14T12:58:50;12.80;99.90
11639;DHT22;5875;35.940;126.892;2024-02-14T13:01:17;12.80;99.90
11639;DHT22;5875;35.940;126.892;2024-02-14T13:03:45;12.90;99.90
11639;DHT22;5875;35.940;126.892;2024-02-14T13:06:12;12.80;99.90
11639;DHT22;5875;35.940;126.892;2024-02-14T13:08:40;12.70;99.90
11639;DHT22;5875;35.940;126.892;2024-02-14T13:11:08;12.80;99.90
11639;DHT22;5875;35.940;126.892;2024-02-14T13:13:35;12.80;99.90
11639;DHT22;5875;35.940;126.892;2024-02-14T13:16:03;12.70;99.90
11639;DHT22;5875;35.940;126.892;2024-02-14T13:18:32;12.80;99.90
11639;DHT22;5875;35.940;126.892;2024-02-14T13:21:01;12.90;99.90
11639;DHT22;5875;35.940;126.892;2024-02-14T13:23:29;13.00;99.90
11639;DHT22;5875;35.940;126.892;2024-02-14T13:25:57;13.10;99.90
11639;DHT22;5875;35.940;126.892;2024-02-14T13:28:28;13.10;99.90
11639;DHT22;5875;35.940;126.892;2024-02-14T13:30:55;13.20;99.90
11639;DHT22;5875;35.940;126.892;2024-02-14T13:33:22;13.20;99.90
11639;DHT22;5875;35.940;126.892;2024-02-14T13:35:50;13.20;99.90
11639;DHT22;5875;35.940;126.892;2024-02-14T13:38:18;13.10;99.90
11639;DHT22;5875;35.940;126.892;2024-02-14T13:40:45;13.00;99.90
11639;DHT22;5875;35.940;126.892;2024-02-14T13:43:12;12.90;99.90
11639;DHT22;5875;35.940;126.892;2024-02-14T13:45:44;12.80;99.90
11639;DHT22;5875;35.940;126.892;2024-02-14T13:48:12;12.70;99.90
11639;DHT22;5875;35.940;126.892;2024-02-14T13:50:39;12.60;99.90
11639;DHT22;5875;35.940;126.892;2024-02-14T13:53:08;12.50;99.90
11639;DHT22;5875;35.940;126.892;2024-02-14T13:55:36;12.50;99.90
11639;DHT22;5875;35.940;126.892;2024-02-14T13:58:06;12.40;99.90
11639;DHT22;5875;35.940;126.892;2024-02-14T14:00:36;12.30;99.90
11639;DHT22;5875;35.940;126.892;2024-02-14T14:03:03;12.10;99.90
11639;DHT22;5875;35.940;126.892;2024-02-14T14:05:31;12.10;99.90
11639;DHT22;5875;35.940;126.892;2024-02-14T14:07:58;12.00;99.90
11639;DHT22;5875;35.940;126.892;2024-02-14T14:10:27;12.00;99.90
11639;DHT22;5875;35.940;126.892;2024-02-14T14:12:55;12.10;99.90
11639;DHT22;5875;35.940;126.892;2024-02-14T14:15:22;12.20;99.90
11639;DHT22;5875;35.940;126.892;2024-02-14T14:17:49;12.20;99.90
11639;DHT22;5875;35.940;126.892;2024-02-14T14:20:17;12.20;99.90
11639;DHT22;5875;35.940;126.892;2024-02-14T14:22:45;12.30;99.90
11639;DHT22;5875;35.940;126.892;2024-02-14T14:25:12;12.30;99.90
11639;DHT22;5875;35.940;126.892;2024-02-14T14:27:39;12.40;99.90
11639;DHT22;5875;35.940;126.892;2024-02-14T14:30:07;12.40;99.90
11639;DHT22;5875;35.940;126.892;2024-02-14T14:32:34;12.40;99.90
11639;DHT22;5875;35.940;126.892;2024-02-14T14:35:01;12.50;99.90
11639;DHT22;5875;35.940;126.892;2024-02-14T14:37:29;12.50;99.90
11639;DHT22;5875;35.940;126.892;2024-02-14T14:39:56;12.60;99.90
11639;DHT22;5875;35.940;126.892;2024-02-14T14:42:26;12.60;99.90
11639;DHT22;5875;35.940;126.892;2024-02-14T14:44:54;12.60;99.90
11639;DHT22;5875;35.940;126.892;2024-02-14T14:47:22;12.50;99.90
11639;DHT22;5875;35.940;126.892;2024-02-14T14:49:49;12.50;99.90
11639;DHT22;5875;35.940;126.892;2024-02-14T14:52:16;12.50;99.90
11639;DHT22;5875;35.940;126.892;2024-02-14T14:54:43;12.60;99.90
11639;DHT22;5875;35.940;126.892;2024-02-14T14:57:10;12.50;99.90
11639;DHT22;5875;35.940;126.892;2024-02-14T14:59:41;12.50;99.90
11639;DHT22;5875;35.940;126.892;2024-02-14T15:02:09;12.40;99.90
11639;DHT22;5875;35.940;126.892;2024-02-14T15:04:37;12.30;99.90
11639;DHT22;5875;35.940;126.892;2024-02-14T15:07:06;12.20;99.90
11639;DHT22;5875;35.940;126.892;2024-02-14T15:09:33;12.20;99.90
11639;DHT22;5875;35.940;126.892;2024-02-14T15:12:01;12.10;99.90
11639;DHT22;5875;35.940;126.892;2024-02-14T15:14:28;12.10;99.90
11639;DHT22;5875;35.940;126.892;2024-02-14T15:16:55;12.00;99.90
11639;DHT22;5875;35.940;126.892;2024-02-14T15:19:22;11.90;99.90
11639;DHT22;5875;35.940;126.892;2024-02-14T15:21:53;11.90;99.90